Amsterdam, Netherlands

2:55 PM CET on February 08, 2016 (GMT +0100)
Aalsmeer - Oost | | Change Station
CLOSE
Current Station
Personal Weather Station
Location: Amsterdam Airport Schiphol, NORTH HOLLAND
Elevation: -13 ft
Nearby Weather Stations

Elev -13 ft 52.28 °N, 4.79 °E | Updated 4 minutes ago

Haze
Haze
50.4 °F
Feels Like 50.4 °F
N
15.9
Wind Variable Wind from SW
Gusts 20.6 mph

Today
High -- | Low -- °F
--% Chance of Precip.
Yesterday
High -- | Low -- °F
Precip. -- in
Pressure 29.00 in
Visibility 5.6 miles
Clouds Few 1500 ft
Mostly Cloudy 3600 ft
Overcast 4300 ft
Dew Point 38 °F
Humidity 62%
Rainfall 0.18 in
Snow Depth Not available.
8:11 AM 5:39 PM
Waning Crescent, 0% visible
METAR EHKD 081355Z AUTO 22025G35KT 190V250 9000 HZ FEW015CB BKN036 OVC043 09/05 Q0982 REDZ BLU 22025G35KT 9999 SCT025 BKN035 TEMPO 21030G40KT FEW018CB BKN025
Pressure 29.00 in
Visibility 5.6 miles
Clouds Few 1500 ft
Mostly Cloudy 3600 ft
Overcast 4300 ft
Dew Point 38 °F
Humidity 62%
Rainfall 0.18 in
Snow Depth Not available.
8:11 AM 5:39 PM
Waning Crescent, 0% visible
METAR EHKD 081355Z AUTO 22025G35KT 190V250 9000 HZ FEW015CB BKN036 OVC043 09/05 Q0982 REDZ BLU 22025G35KT 9999 SCT025 BKN035 TEMPO 21030G40KT FEW018CB BKN025

10-Day Weather Forecast

Almanac

Astronomy

Feb. 08, 2016 Rise Set
Actual Time
Civil Twilight
Nautical Twilight
Astronomical Twilight
Moon
Length of Visible Light
Length of Day
Tomorrow will be .
, % of the Moon is Illuminated

Today's Extremes

Country Highs Country Lows

Community

WunderPhotos

Upload Photos

1,891,437 photos uploaded!

WunderBlog® & News

Nearby

Air Quality

  Air Quality AQ Index Pollutant
Not available.

Snow Depth

Station Depth Elevation

Earthquake Activity

City Distance Mag. Time & Date
Minimum magnitude displayed is 2.5.

Coastal Water Temperatures

Place Temperature

Stations

Nearby Weather Stations

Station Location Temp. Windchill Dew Point Humidity Wind Precip. Elev Updated Type